createdAt,value
2023-05-19T07:25:59.181Z,4.80
2023-05-19T07:28:26.176Z,4.65
2023-05-19T07:30:53.432Z,4.95
2023-05-19T07:33:20.368Z,4.63
2023-05-19T07:35:47.629Z,5.68
2023-05-19T07:38:14.526Z,5.25
2023-05-19T07:40:41.511Z,4.82
2023-05-19T07:43:08.468Z,5.38
2023-05-19T07:45:35.416Z,5.05
2023-05-19T07:48:02.458Z,5.10
2023-05-19T07:50:29.636Z,4.82
2023-05-19T07:52:56.692Z,5.13
2023-05-19T07:55:23.646Z,4.85
2023-05-19T07:57:51.258Z,4.65
2023-05-19T08:00:18.547Z,5.60
2023-05-19T08:02:45.895Z,6.07
2023-05-19T08:05:12.909Z,6.55
2023-05-19T08:07:40.164Z,6.88
2023-05-19T08:10:07.624Z,6.55
2023-05-19T08:12:34.555Z,5.82
2023-05-19T08:15:02.024Z,5.80
2023-05-19T08:17:29.165Z,5.40
2023-05-19T08:19:56.219Z,5.53
2023-05-19T08:22:23.216Z,4.60
2023-05-19T08:24:51.921Z,6.20
2023-05-19T08:27:18.990Z,6.40
2023-05-19T08:29:46.037Z,5.28
2023-05-19T08:32:13.482Z,5.80
2023-05-19T08:34:41.494Z,6.35
2023-05-19T08:37:08.535Z,6.38
2023-05-19T08:39:35.671Z,5.63
2023-05-19T08:42:02.716Z,5.60
2023-05-19T08:44:31.036Z,5.32
2023-05-19T08:47:03.066Z,5.22
2023-05-19T08:49:33.591Z,6.35
2023-05-19T08:52:17.313Z,6.03
2023-05-19T08:54:51.026Z,6.10
2023-05-19T08:57:18.978Z,5.50
2023-05-19T08:59:46.360Z,6.45
2023-05-19T09:02:14.533Z,5.68
2023-05-19T09:04:46.122Z,5.25
2023-05-19T09:07:16.959Z,6.22
2023-05-19T09:09:44.214Z,5.70
2023-05-19T09:12:11.635Z,6.00
2023-05-19T09:14:39.120Z,6.63
2023-05-19T09:17:06.816Z,5.70
2023-05-19T09:19:34.048Z,5.80
2023-05-19T09:22:03.880Z,5.43
2023-05-19T09:24:31.168Z,5.72
2023-05-19T09:27:00.080Z,6.03
2023-05-19T09:29:27.455Z,5.72
2023-05-19T09:32:05.454Z,5.97
2023-05-19T09:34:32.620Z,5.88
2023-05-19T09:37:00.051Z,6.13
2023-05-19T09:39:28.979Z,5.80
2023-05-19T09:41:58.752Z,5.35
2023-05-19T09:44:30.561Z,5.05
2023-05-19T09:46:58.866Z,5.07
2023-05-19T09:49:30.750Z,5.15
2023-05-19T09:51:59.117Z,5.20
2023-05-19T09:54:29.845Z,5.43
2023-05-19T09:57:07.760Z,6.03
2023-05-19T09:59:35.888Z,5.72
2023-05-19T10:02:03.175Z,5.82
2023-05-19T10:04:31.312Z,5.10
2023-05-19T10:07:01.799Z,5.35
2023-05-19T10:09:30.113Z,5.17
2023-05-19T10:11:59.133Z,4.95
2023-05-19T10:14:27.801Z,4.78
2023-05-19T10:16:56.631Z,4.80
2023-05-19T10:19:26.694Z,5.00
2023-05-19T10:21:54.423Z,5.40
2023-05-19T10:24:21.825Z,5.22
2023-05-19T10:26:54.248Z,5.03
2023-05-19T10:29:27.653Z,5.45
2023-05-19T10:32:01.388Z,5.07
2023-05-19T10:35:02.401Z,5.20
2023-05-19T10:37:46.959Z,4.97
2023-05-19T10:40:22.104Z,5.68
2023-05-19T10:43:17.454Z,5.20
2023-05-19T10:45:58.121Z,5.43
2023-05-19T10:48:25.167Z,5.47
2023-05-19T10:50:56.619Z,5.47
2023-05-19T10:53:31.551Z,5.97
2023-05-19T10:56:02.756Z,5.75
2023-05-19T11:01:19.799Z,5.68
2023-05-19T11:03:54.910Z,5.82
2023-05-19T11:06:28.258Z,5.43
2023-05-19T11:09:15.686Z,5.32
2023-05-19T11:11:54.114Z,6.07
2023-05-19T11:14:25.493Z,5.18
2023-05-19T11:16:56.904Z,5.32
2023-05-19T11:19:35.732Z,5.18
2023-05-19T11:22:13.539Z,4.97
2023-05-19T11:24:52.495Z,5.10
2023-05-19T11:27:37.624Z,5.75
2023-05-19T11:30:16.095Z,5.65
2023-05-19T11:32:44.481Z,5.60
2023-05-19T11:35:11.620Z,4.85
2023-05-19T11:37:40.754Z,5.18
2023-05-19T11:40:08.485Z,4.75
2023-05-19T11:42:37.230Z,5.78
2023-05-19T11:45:05.381Z,5.05
2023-05-19T11:47:45.909Z,6.25
2023-05-19T11:50:20.587Z,4.47
2023-05-19T11:52:47.813Z,4.95
2023-05-19T11:55:18.718Z,5.97
2023-05-19T11:58:04.656Z,5.88
2023-05-19T12:00:39.839Z,4.00
2023-05-19T12:03:08.360Z,4.68
2023-05-19T12:05:43.431Z,4.50
2023-05-19T12:08:12.209Z,4.72
2023-05-19T12:10:40.221Z,5.03
2023-05-19T12:13:10.713Z,4.38
2023-05-19T12:15:39.023Z,4.20
2023-05-19T12:18:06.826Z,4.20
2023-05-19T12:20:36.328Z,3.78
2023-05-19T12:23:04.185Z,4.88
2023-05-19T12:25:32.366Z,4.30
2023-05-19T12:28:03.228Z,4.28
2023-05-19T12:30:31.821Z,4.18
2023-05-19T12:32:59.281Z,3.17
2023-05-19T12:35:28.016Z,3.78
2023-05-19T12:37:55.334Z,3.83
2023-05-19T12:40:22.750Z,4.38
2023-05-19T12:42:52.108Z,3.35
2023-05-19T12:45:22.933Z,3.67
2023-05-19T12:47:51.948Z,3.63
2023-05-19T12:50:19.502Z,4.03
2023-05-19T12:52:53.573Z,3.25
2023-05-19T12:55:21.158Z,4.20
2023-05-19T12:57:58.131Z,4.15
2023-05-19T13:00:29.123Z,3.97
2023-05-19T13:05:33.854Z,3.92
2023-05-19T13:08:11.019Z,3.85
2023-05-19T13:10:39.952Z,3.97
2023-05-19T13:13:08.577Z,4.32
2023-05-19T13:15:39.051Z,3.45
2023-05-19T13:18:09.064Z,4.05
2023-05-19T13:20:37.560Z,3.97
2023-05-19T13:23:06.092Z,3.40
2023-05-19T13:25:34.515Z,3.50
2023-05-19T13:28:05.156Z,4.13
2023-05-19T13:30:33.446Z,4.28
2023-05-19T13:33:00.600Z,3.55
2023-05-19T13:35:27.611Z,4.75
2023-05-19T13:37:54.846Z,4.25
2023-05-19T13:40:23.195Z,4.63
2023-05-19T13:42:50.152Z,4.05
2023-05-19T13:45:17.190Z,4.03
2023-05-19T13:47:44.163Z,3.95
2023-05-19T13:50:11.285Z,4.20
2023-05-19T13:52:38.334Z,4.13
2023-05-19T13:55:06.819Z,4.68
2023-05-19T13:57:34.267Z,4.60
2023-05-19T14:00:03.716Z,4.22
2023-05-19T14:02:31.507Z,4.60
2023-05-19T14:04:58.586Z,3.55
2023-05-19T14:07:25.895Z,4.53
2023-05-19T14:09:53.151Z,4.13
2023-05-19T14:12:23.184Z,3.60
2023-05-19T14:14:52.455Z,3.97
2023-05-19T14:17:19.342Z,3.72
2023-05-19T14:19:46.244Z,4.50
2023-05-19T14:22:13.725Z,4.45
2023-05-19T14:24:41.715Z,4.35
2023-05-19T14:27:08.668Z,3.63
2023-05-19T14:29:35.660Z,3.85
2023-05-19T14:32:03.992Z,4.00
2023-05-19T14:34:31.041Z,4.35
2023-05-19T14:36:58.003Z,3.95
2023-05-19T14:39:24.928Z,4.65
2023-05-19T14:41:53.141Z,5.05
2023-05-19T14:44:20.147Z,4.10
2023-05-19T14:46:47.153Z,4.28
2023-05-19T14:49:14.252Z,5.13
2023-05-19T14:51:41.135Z,4.07
2023-05-19T14:54:08.192Z,4.05
2023-05-19T14:56:35.290Z,4.30
2023-05-19T14:59:02.281Z,4.45
2023-05-19T15:01:29.290Z,4.63
2023-05-19T15:03:56.445Z,4.25
2023-05-19T15:06:23.783Z,3.92
2023-05-19T15:08:51.131Z,4.75
2023-05-19T15:11:18.033Z,4.15
2023-05-19T15:13:45.209Z,4.03
2023-05-19T15:18:42.045Z,4.43
2023-05-19T15:21:08.980Z,4.50
2023-05-19T15:23:35.996Z,4.15
2023-05-19T15:26:03.275Z,5.85
2023-05-19T15:28:30.328Z,3.90
2023-05-19T15:30:57.242Z,4.63
2023-05-19T15:33:24.265Z,4.57
2023-05-19T15:35:52.599Z,5.00
2023-05-19T15:38:20.016Z,5.13
2023-05-19T15:40:47.056Z,4.35
2023-05-19T15:43:14.298Z,4.55
2023-05-19T15:45:41.417Z,4.20
2023-05-19T15:48:08.822Z,4.45
2023-05-19T15:50:36.461Z,3.97
2023-05-19T15:53:03.671Z,3.97
2023-05-19T15:55:30.724Z,4.65
2023-05-19T15:57:57.867Z,4.00
2023-05-19T16:00:24.812Z,4.03
2023-05-19T16:02:51.752Z,4.00
2023-05-19T16:05:18.902Z,4.63
2023-05-19T16:07:45.766Z,4.43
2023-05-19T16:10:12.715Z,4.15
2023-05-19T16:12:39.766Z,4.43
2023-05-19T16:15:07.201Z,4.13
2023-05-19T16:17:34.876Z,4.18
2023-05-19T16:20:01.910Z,3.75
2023-05-19T16:22:30.349Z,4.20
2023-05-19T16:24:57.277Z,4.28
2023-05-19T16:27:24.330Z,4.57
2023-05-19T16:29:51.222Z,4.35
2023-05-19T16:32:18.169Z,3.83
2023-05-19T16:34:45.012Z,4.07
2023-05-19T16:37:11.855Z,4.30
2023-05-19T16:39:38.794Z,4.15
2023-05-19T16:42:05.956Z,4.03
2023-05-19T16:44:32.956Z,4.32
2023-05-19T16:47:00.093Z,4.22
2023-05-19T16:49:27.145Z,4.40
2023-05-19T16:51:54.340Z,4.55
2023-05-19T16:54:21.841Z,4.57
2023-05-19T16:56:50.228Z,4.47
2023-05-19T16:59:17.586Z,5.22
2023-05-19T17:01:44.835Z,4.57
2023-05-19T17:04:12.028Z,5.63
2023-05-19T17:06:39.026Z,4.43
2023-05-19T17:09:05.961Z,4.07
2023-05-19T17:11:32.862Z,4.70
2023-05-19T17:13:59.905Z,4.45
2023-05-19T17:16:26.886Z,4.72
2023-05-19T17:18:53.926Z,3.63
2023-05-19T17:21:20.902Z,4.70
2023-05-19T17:23:48.302Z,4.57
2023-05-19T17:26:16.382Z,4.53
2023-05-19T17:28:43.270Z,4.72
2023-05-19T17:31:12.116Z,5.43
2023-05-19T17:33:39.428Z,5.68
2023-05-19T17:36:07.389Z,4.60
2023-05-19T17:38:34.493Z,4.22
2023-05-19T17:41:09.783Z,4.32
2023-05-19T17:43:37.584Z,5.20
2023-05-19T17:46:05.292Z,4.65
2023-05-19T17:48:32.704Z,4.57
2023-05-19T17:51:00.665Z,4.95
2023-05-19T17:53:27.967Z,4.72
2023-05-19T17:56:06.699Z,4.53
2023-05-19T17:58:33.993Z,5.28
2023-05-19T18:01:01.106Z,4.25
2023-05-19T18:03:28.795Z,4.88
2023-05-19T18:05:56.071Z,4.97
2023-05-19T18:08:23.259Z,4.97
2023-05-19T18:10:51.856Z,4.68
2023-05-19T18:13:18.856Z,5.22
2023-05-19T18:15:45.734Z,4.28
2023-05-19T18:18:12.760Z,5.00
2023-05-19T18:20:41.418Z,5.07
2023-05-19T18:23:08.353Z,4.72
2023-05-19T18:25:35.814Z,5.22
2023-05-19T18:28:02.735Z,4.82
2023-05-19T18:30:29.756Z,5.03
2023-05-19T18:32:57.412Z,5.40
2023-05-19T18:35:24.270Z,6.13
2023-05-19T18:37:54.550Z,5.30
2023-05-19T18:40:21.477Z,5.30
2023-05-19T18:42:48.453Z,5.03
2023-05-19T18:45:15.427Z,5.05
2023-05-19T18:47:42.497Z,5.90
2023-05-19T18:50:09.468Z,4.68
2023-05-19T18:52:36.441Z,5.35
2023-05-19T18:55:03.968Z,5.28
2023-05-19T18:57:30.952Z,4.60
2023-05-19T18:59:58.264Z,4.43
2023-05-19T19:02:25.251Z,5.15
2023-05-19T19:04:52.176Z,5.43
2023-05-19T19:07:19.197Z,5.00
2023-05-19T19:09:46.262Z,5.55
2023-05-19T19:12:13.104Z,5.00
2023-05-19T19:14:39.981Z,4.95
2023-05-19T19:17:06.884Z,5.60
2023-05-19T19:19:33.862Z,5.25
2023-05-19T19:22:00.839Z,6.22
2023-05-19T19:24:28.633Z,5.03
2023-05-19T19:26:55.587Z,5.43
2023-05-19T19:29:22.623Z,5.57
2023-05-19T19:31:49.657Z,4.90
2023-05-19T19:34:19.850Z,5.72
2023-05-19T19:36:47.989Z,5.38
2023-05-19T19:39:15.372Z,5.68
2023-05-19T19:41:42.518Z,5.32
2023-05-19T19:44:09.526Z,5.88
2023-05-19T19:46:36.520Z,5.38
2023-05-19T19:49:03.552Z,5.70
2023-05-19T19:51:31.639Z,5.65
2023-05-19T19:53:59.269Z,5.82
2023-05-19T19:56:27.776Z,5.82
2023-05-19T19:58:56.862Z,5.60
2023-05-19T20:01:28.068Z,5.68
2023-05-19T20:03:56.926Z,5.82
2023-05-19T20:06:23.962Z,5.30
2023-05-19T20:08:51.008Z,5.28
2023-05-19T20:11:17.965Z,6.05
2023-05-19T20:13:44.892Z,5.63
2023-05-19T20:16:11.964Z,6.47
2023-05-19T20:18:39.785Z,5.70
2023-05-19T20:21:06.865Z,5.72
2023-05-19T20:23:34.072Z,5.75
2023-05-19T20:26:11.855Z,6.18
2023-05-19T20:28:40.460Z,5.40
2023-05-19T20:31:07.629Z,5.40
2023-05-19T20:33:34.878Z,5.45
2023-05-19T20:36:01.939Z,6.57
2023-05-19T20:38:28.934Z,6.32
2023-05-19T20:40:55.824Z,6.68
2023-05-19T20:43:22.765Z,5.72
2023-05-19T20:45:49.736Z,6.22
2023-05-19T20:48:16.714Z,5.65
2023-05-19T20:50:43.671Z,6.28
2023-05-19T20:53:10.756Z,6.05
2023-05-19T20:55:39.252Z,5.75
2023-05-19T20:58:06.347Z,5.82
2023-05-19T21:00:33.756Z,5.93
2023-05-19T21:03:01.628Z,6.30
2023-05-19T21:05:28.656Z,6.35
2023-05-19T21:07:55.705Z,7.18
2023-05-19T21:10:22.792Z,6.45
2023-05-19T21:12:49.845Z,6.25
2023-05-19T21:15:16.923Z,5.82
2023-05-19T21:17:43.854Z,7.05
2023-05-19T21:20:11.300Z,6.32
2023-05-19T21:22:38.351Z,5.85
2023-05-19T21:25:06.243Z,8.27
2023-05-19T21:27:35.604Z,6.55
2023-05-19T21:30:02.763Z,6.63
2023-05-19T21:32:29.880Z,7.57
2023-05-19T21:34:56.964Z,6.32
2023-05-19T21:37:23.849Z,7.05
2023-05-19T21:39:50.898Z,6.75
2023-05-19T21:42:18.144Z,5.72
2023-05-19T21:44:45.002Z,6.88
2023-05-19T21:47:11.984Z,6.22
2023-05-19T21:49:40.415Z,6.47
2023-05-19T21:52:08.128Z,6.18
2023-05-19T21:54:36.312Z,6.97
2023-05-19T21:57:03.337Z,6.13
2023-05-19T21:59:31.063Z,6.82
2023-05-19T22:01:58.665Z,7.00
2023-05-19T22:04:25.974Z,6.47
2023-05-19T22:06:52.876Z,7.38
2023-05-19T22:09:19.777Z,6.88
2023-05-19T22:11:46.652Z,6.15
2023-05-19T22:14:13.922Z,7.68
2023-05-19T22:16:41.289Z,5.70
2023-05-19T22:19:08.370Z,6.65
2023-05-19T22:21:35.306Z,6.38
2023-05-19T22:24:02.713Z,7.07
2023-05-19T22:26:29.924Z,6.22
2023-05-19T22:28:57.119Z,6.50
2023-05-19T22:31:24.054Z,6.95
2023-05-19T22:33:51.106Z,7.57
2023-05-19T22:36:18.043Z,6.53
2023-05-19T22:38:45.013Z,7.18
2023-05-19T22:41:11.944Z,7.05
2023-05-19T22:43:38.982Z,7.25
2023-05-19T22:46:06.153Z,7.88
2023-05-19T22:48:33.229Z,8.70
2023-05-19T22:51:00.275Z,6.65
2023-05-19T22:53:27.184Z,7.82
2023-05-19T22:55:54.073Z,6.68
2023-05-19T22:58:20.959Z,7.70
2023-05-19T23:00:47.897Z,7.38
2023-05-19T23:03:14.835Z,8.45
2023-05-19T23:05:41.736Z,6.65
2023-05-19T23:08:08.646Z,6.80
2023-05-19T23:10:35.737Z,7.05
2023-05-19T23:13:02.621Z,6.47
2023-05-19T23:15:29.733Z,6.90
2023-05-19T23:17:56.697Z,6.78
2023-05-19T23:20:23.613Z,7.85
2023-05-19T23:22:50.569Z,8.00
2023-05-19T23:25:17.817Z,8.35
2023-05-19T23:27:46.630Z,7.75
2023-05-19T23:30:13.608Z,8.07
2023-05-19T23:32:41.190Z,6.97
2023-05-19T23:35:17.009Z,8.00
2023-05-19T23:37:44.218Z,8.48
2023-05-19T23:40:11.748Z,7.78
2023-05-19T23:42:38.822Z,7.68
2023-05-19T23:45:06.434Z,7.22
2023-05-19T23:47:33.390Z,7.82
2023-05-19T23:50:00.372Z,7.75
2023-05-19T23:52:27.424Z,7.03
2023-05-19T23:54:54.383Z,8.30
2023-05-19T23:57:21.567Z,7.18
2023-05-19T23:59:48.615Z,7.55
